sensor_id;sensor_type;location;lat;lon;timestamp;temperature;humidity
1602;DHT22;794;48.592;9.634;2022-09-03T00:02:08;15.50;1.00
1602;DHT22;794;48.592;9.634;2022-09-03T00:04:44;15.40;1.00
1602;DHT22;794;48.592;9.634;2022-09-03T00:07:18;15.50;1.00
1602;DHT22;794;48.592;9.634;2022-09-03T00:09:50;16.10;1.00
1602;DHT22;794;48.592;9.634;2022-09-03T00:12:27;16.20;1.00
1602;DHT22;794;48.592;9.634;2022-09-03T00:15:01;15.60;1.00
1602;DHT22;794;48.592;9.634;2022-09-03T00:17:37;15.60;1.00
1602;DHT22;794;48.592;9.634;2022-09-03T00:20:15;16.40;1.00
1602;DHT22;794;48.592;9.634;2022-09-03T00:22:47;15.60;1.00
1602;DHT22;794;48.592;9.634;2022-09-03T00:25:21;15.50;1.00
1602;DHT22;794;48.592;9.634;2022-09-03T00:27:53;15.60;1.00
1602;DHT22;794;48.592;9.634;2022-09-03T00:30:23;15.70;1.00
1602;DHT22;794;48.592;9.634;2022-09-03T00:32:59;15.70;1.00
1602;DHT22;794;48.592;9.634;2022-09-03T00:35:40;15.80;1.00
1602;DHT22;794;48.592;9.634;2022-09-03T00:38:19;15.60;1.00
1602;DHT22;794;48.592;9.634;2022-09-03T00:41:05;15.80;1.00
1602;DHT22;794;48.592;9.634;2022-09-03T00:43:49;15.90;1.00
1602;DHT22;794;48.592;9.634;2022-09-03T00:46:26;15.70;1.00
1602;DHT22;794;48.592;9.634;2022-09-03T00:49:29;15.90;1.00
1602;DHT22;794;48.592;9.634;2022-09-03T00:52:13;15.60;1.00
1602;DHT22;794;48.592;9.634;2022-09-03T00:55:01;15.70;1.00
1602;DHT22;794;48.592;9.634;2022-09-03T00:57:36;15.80;1.00
1602;DHT22;794;48.592;9.634;2022-09-03T01:00:08;15.80;1.00
1602;DHT22;794;48.592;9.634;2022-09-03T01:03:00;15.70;1.00
1602;DHT22;794;48.592;9.634;2022-09-03T01:08:49;15.80;1.00
1602;DHT22;794;48.592;9.634;2022-09-03T01:11:24;15.80;1.00
1602;DHT22;794;48.592;9.634;2022-09-03T01:14:09;15.80;1.00
1602;DHT22;794;48.592;9.634;2022-09-03T01:16:48;15.80;1.00
1602;DHT22;794;48.592;9.634;2022-09-03T01:19:51;15.90;1.00
1602;DHT22;794;48.592;9.634;2022-09-03T01:22:42;16.10;1.00
1602;DHT22;794;48.592;9.634;2022-09-03T01:25:23;15.70;1.00
1602;DHT22;794;48.592;9.634;2022-09-03T01:28:21;15.60;1.00
1602;DHT22;794;48.592;9.634;2022-09-03T01:30:54;13.70;1.00
1602;DHT22;794;48.592;9.634;2022-09-03T01:33:27;15.70;1.00
1602;DHT22;794;48.592;9.634;2022-09-03T01:36:30;15.70;1.00
1602;DHT22;794;48.592;9.634;2022-09-03T01:39:05;15.60;1.00
1602;DHT22;794;48.592;9.634;2022-09-03T01:41:46;15.70;1.00
1602;DHT22;794;48.592;9.634;2022-09-03T01:44:48;15.40;1.00
1602;DHT22;794;48.592;9.634;2022-09-03T01:47:30;15.50;1.00
1602;DHT22;794;48.592;9.634;2022-09-03T01:50:06;15.50;1.00
1602;DHT22;794;48.592;9.634;2022-09-03T01:52:44;15.70;1.00
1602;DHT22;794;48.592;9.634;2022-09-03T01:55:27;13.70;1.00
1602;DHT22;794;48.592;9.634;2022-09-03T01:58:00;15.60;1.00
1602;DHT22;794;48.592;9.634;2022-09-03T02:00:33;15.60;1.00
1602;DHT22;794;48.592;9.634;2022-09-03T02:03:15;15.40;1.00
1602;DHT22;794;48.592;9.634;2022-09-03T02:05:42;16.10;1.00
1602;DHT22;794;48.592;9.634;2022-09-03T02:08:12;15.60;1.00
1602;DHT22;794;48.592;9.634;2022-09-03T02:10:41;13.80;1.00
1602;DHT22;794;48.592;9.634;2022-09-03T02:13:12;15.60;1.00
1602;DHT22;794;48.592;9.634;2022-09-03T02:15:49;14.30;1.00
1602;DHT22;794;48.592;9.634;2022-09-03T02:18:19;18.40;1.00
1602;DHT22;794;48.592;9.634;2022-09-03T02:20:53;15.30;1.00
1602;DHT22;794;48.592;9.634;2022-09-03T02:23:23;15.30;1.00
1602;DHT22;794;48.592;9.634;2022-09-03T02:26:03;15.20;1.00
1602;DHT22;794;48.592;9.634;2022-09-03T02:28:31;15.90;1.00
1602;DHT22;794;48.592;9.634;2022-09-03T02:31:00;15.30;1.00
1602;DHT22;794;48.592;9.634;2022-09-03T02:33:37;15.30;1.00
1602;DHT22;794;48.592;9.634;2022-09-03T02:36:06;15.20;1.00
1602;DHT22;794;48.592;9.634;2022-09-03T02:38:34;15.30;1.00
1602;DHT22;794;48.592;9.634;2022-09-03T02:43:39;15.10;1.00
1602;DHT22;794;48.592;9.634;2022-09-03T02:46:13;15.10;1.00
1602;DHT22;794;48.592;9.634;2022-09-03T02:48:49;15.20;1.00
1602;DHT22;794;48.592;9.634;2022-09-03T02:51:18;15.20;1.00
1602;DHT22;794;48.592;9.634;2022-09-03T02:53:45;15.30;1.00
1602;DHT22;794;48.592;9.634;2022-09-03T02:56:14;15.30;1.00
1602;DHT22;794;48.592;9.634;2022-09-03T02:58:41;15.30;1.00
1602;DHT22;794;48.592;9.634;2022-09-03T03:01:14;15.40;1.00
1602;DHT22;794;48.592;9.634;2022-09-03T03:03:41;15.80;1.00
1602;DHT22;794;48.592;9.634;2022-09-03T03:06:09;15.20;1.00
1602;DHT22;794;48.592;9.634;2022-09-03T03:08:36;15.30;1.00
1602;DHT22;794;48.592;9.634;2022-09-03T03:11:04;15.10;1.00
1602;DHT22;794;48.592;9.634;2022-09-03T03:13:31;15.70;1.00
1602;DHT22;794;48.592;9.634;2022-09-03T03:16:03;15.40;1.00
1602;DHT22;794;48.592;9.634;2022-09-03T03:18:33;15.10;1.00
1602;DHT22;794;48.592;9.634;2022-09-03T03:21:04;14.90;1.00
1602;DHT22;794;48.592;9.634;2022-09-03T03:23:34;15.10;1.00
1602;DHT22;794;48.592;9.634;2022-09-03T03:26:02;15.20;1.00
1602;DHT22;794;48.592;9.634;2022-09-03T03:28:30;15.10;1.00
1602;DHT22;794;48.592;9.634;2022-09-03T03:31:03;14.70;1.00
1602;DHT22;794;48.592;9.634;2022-09-03T03:33:32;15.10;1.00
1602;DHT22;794;48.592;9.634;2022-09-03T03:36:04;15.00;1.00
1602;DHT22;794;48.592;9.634;2022-09-03T03:38:33;14.50;1.00
1602;DHT22;794;48.592;9.634;2022-09-03T03:41:06;14.70;1.00
1602;DHT22;794;48.592;9.634;2022-09-03T03:43:40;14.30;1.00
1602;DHT22;794;48.592;9.634;2022-09-03T03:46:07;14.50;1.00
1602;DHT22;794;48.592;9.634;2022-09-03T03:48:37;14.60;1.00
1602;DHT22;794;48.592;9.634;2022-09-03T03:51:05;14.00;1.00
1602;DHT22;794;48.592;9.634;2022-09-03T03:53:34;14.10;1.00
1602;DHT22;794;48.592;9.634;2022-09-03T03:56:05;14.10;1.00
1602;DHT22;794;48.592;9.634;2022-09-03T03:58:32;13.90;1.00
1602;DHT22;794;48.592;9.634;2022-09-03T04:01:04;13.90;1.00
1602;DHT22;794;48.592;9.634;2022-09-03T04:03:40;13.80;1.00
1602;DHT22;794;48.592;9.634;2022-09-03T04:06:11;13.80;1.00
1602;DHT22;794;48.592;9.634;2022-09-03T04:08:40;14.30;1.00
1602;DHT22;794;48.592;9.634;2022-09-03T04:11:09;13.60;1.00
1602;DHT22;794;48.592;9.634;2022-09-03T04:13:42;13.60;1.00
1602;DHT22;794;48.592;9.634;2022-09-03T04:16:18;13.80;1.00
1602;DHT22;794;48.592;9.634;2022-09-03T04:18:47;11.70;1.00
1602;DHT22;794;48.592;9.634;2022-09-03T04:21:18;13.60;1.00
1602;DHT22;794;48.592;9.634;2022-09-03T04:23:47;13.60;1.00
1602;DHT22;794;48.592;9.634;2022-09-03T04:26:18;13.60;1.00
1602;DHT22;794;48.592;9.634;2022-09-03T04:28:48;13.60;1.00
1602;DHT22;794;48.592;9.634;2022-09-03T04:31:19;13.70;1.00
1602;DHT22;794;48.592;9.634;2022-09-03T04:33:48;13.80;1.00
1602;DHT22;794;48.592;9.634;2022-09-03T04:36:29;13.70;1.00
1602;DHT22;794;48.592;9.634;2022-09-03T04:38:58;13.80;1.00
1602;DHT22;794;48.592;9.634;2022-09-03T04:41:28;13.90;1.00
1602;DHT22;794;48.592;9.634;2022-09-03T04:43:57;13.90;1.00
1602;DHT22;794;48.592;9.634;2022-09-03T04:46:25;14.00;1.00
1602;DHT22;794;48.592;9.634;2022-09-03T04:49:05;14.00;1.00
1602;DHT22;794;48.592;9.634;2022-09-03T04:51:34;14.30;1.00
1602;DHT22;794;48.592;9.634;2022-09-03T04:54:02;14.20;1.00
1602;DHT22;794;48.592;9.634;2022-09-03T04:56:31;14.40;1.00
1602;DHT22;794;48.592;9.634;2022-09-03T04:58:59;14.00;1.00
1602;DHT22;794;48.592;9.634;2022-09-03T05:01:28;14.10;1.00
1602;DHT22;794;48.592;9.634;2022-09-03T05:03:55;14.10;1.00
1602;DHT22;794;48.592;9.634;2022-09-03T05:06:28;14.20;1.00
1602;DHT22;794;48.592;9.634;2022-09-03T05:08:55;14.20;1.00
1602;DHT22;794;48.592;9.634;2022-09-03T05:11:25;14.40;1.00
1602;DHT22;794;48.592;9.634;2022-09-03T05:13:54;14.30;1.00
1602;DHT22;794;48.592;9.634;2022-09-03T05:16:22;14.70;1.00
1602;DHT22;794;48.592;9.634;2022-09-03T05:18:51;14.50;1.00
1602;DHT22;794;48.592;9.634;2022-09-03T05:21:21;14.50;1.00
1602;DHT22;794;48.592;9.634;2022-09-03T05:23:51;14.60;1.00
1602;DHT22;794;48.592;9.634;2022-09-03T05:26:20;14.70;1.00
1602;DHT22;794;48.592;9.634;2022-09-03T05:31:16;14.40;1.00
1602;DHT22;794;48.592;9.634;2022-09-03T05:33:46;14.40;1.00
1602;DHT22;794;48.592;9.634;2022-09-03T05:36:16;14.60;1.00
1602;DHT22;794;48.592;9.634;2022-09-03T05:38:44;14.60;1.00
1602;DHT22;794;48.592;9.634;2022-09-03T05:41:14;14.50;1.00
1602;DHT22;794;48.592;9.634;2022-09-03T05:43:41;14.60;1.00
1602;DHT22;794;48.592;9.634;2022-09-03T05:46:09;14.40;1.00
1602;DHT22;794;48.592;9.634;2022-09-03T05:48:39;14.20;1.00
1602;DHT22;794;48.592;9.634;2022-09-03T05:51:09;14.20;1.00
1602;DHT22;794;48.592;9.634;2022-09-03T05:53:38;13.90;1.00
1602;DHT22;794;48.592;9.634;2022-09-03T05:56:07;14.10;1.00
1602;DHT22;794;48.592;9.634;2022-09-03T05:58:39;14.20;1.00
1602;DHT22;794;48.592;9.634;2022-09-03T06:01:13;14.10;1.00
1602;DHT22;794;48.592;9.634;2022-09-03T06:03:41;13.90;1.00
1602;DHT22;794;48.592;9.634;2022-09-03T06:06:09;14.00;1.00
1602;DHT22;794;48.592;9.634;2022-09-03T06:08:36;14.40;1.00
1602;DHT22;794;48.592;9.634;2022-09-03T06:11:04;14.40;1.00
1602;DHT22;794;48.592;9.634;2022-09-03T06:13:32;14.60;1.00
1602;DHT22;794;48.592;9.634;2022-09-03T06:16:03;14.80;1.00
1602;DHT22;794;48.592;9.634;2022-09-03T06:18:30;15.10;1.00
1602;DHT22;794;48.592;9.634;2022-09-03T06:20:58;15.20;1.00
1602;DHT22;794;48.592;9.634;2022-09-03T06:23:27;15.40;1.00
1602;DHT22;794;48.592;9.634;2022-09-03T06:26:02;15.40;1.00
1602;DHT22;794;48.592;9.634;2022-09-03T06:28:29;15.50;1.00
1602;DHT22;794;48.592;9.634;2022-09-03T06:33:32;18.20;1.00
1602;DHT22;794;48.592;9.634;2022-09-03T06:36:00;16.10;1.00
1602;DHT22;794;48.592;9.634;2022-09-03T06:38:29;16.50;1.00
1602;DHT22;794;48.592;9.634;2022-09-03T06:40:58;16.60;1.00
1602;DHT22;794;48.592;9.634;2022-09-03T06:43:27;16.70;1.00
1602;DHT22;794;48.592;9.634;2022-09-03T06:45:58;17.50;1.00
1602;DHT22;794;48.592;9.634;2022-09-03T06:48:30;17.40;1.00
1602;DHT22;794;48.592;9.634;2022-09-03T06:50:59;16.70;1.00
1602;DHT22;794;48.592;9.634;2022-09-03T06:53:29;17.80;1.00
1602;DHT22;794;48.592;9.634;2022-09-03T06:55:59;18.00;1.00
1602;DHT22;794;48.592;9.634;2022-09-03T06:58:30;18.10;1.00
1602;DHT22;794;48.592;9.634;2022-09-03T07:01:01;18.40;1.00
1602;DHT22;794;48.592;9.634;2022-09-03T07:03:29;18.60;1.00
1602;DHT22;794;48.592;9.634;2022-09-03T07:05:59;18.90;1.00
1602;DHT22;794;48.592;9.634;2022-09-03T07:13:22;22.10;1.00
1602;DHT22;794;48.592;9.634;2022-09-03T07:15:58;24.60;1.00
1602;DHT22;794;48.592;9.634;2022-09-03T07:18:25;26.40;1.00
1602;DHT22;794;48.592;9.634;2022-09-03T07:20:58;27.20;1.00
1602;DHT22;794;48.592;9.634;2022-09-03T07:23:26;26.20;1.00
1602;DHT22;794;48.592;9.634;2022-09-03T07:25:54;25.20;1.00
1602;DHT22;794;48.592;9.634;2022-09-03T07:28:26;24.30;1.00
1602;DHT22;794;48.592;9.634;2022-09-03T07:31:04;23.60;1.00
1602;DHT22;794;48.592;9.634;2022-09-03T07:33:34;23.60;1.00
1602;DHT22;794;48.592;9.634;2022-09-03T07:36:04;23.70;1.00
1602;DHT22;794;48.592;9.634;2022-09-03T07:38:32;23.80;1.00
1602;DHT22;794;48.592;9.634;2022-09-03T07:41:00;24.70;1.00
1602;DHT22;794;48.592;9.634;2022-09-03T07:43:36;25.70;1.00
1602;DHT22;794;48.592;9.634;2022-09-03T07:46:05;25.50;1.00
1602;DHT22;794;48.592;9.634;2022-09-03T07:48:33;23.90;1.00
1602;DHT22;794;48.592;9.634;2022-09-03T07:53:29;22.70;1.00
1602;DHT22;794;48.592;9.634;2022-09-03T07:56:01;22.10;1.00
1602;DHT22;794;48.592;9.634;2022-09-03T07:58:28;22.00;1.00
1602;DHT22;794;48.592;9.634;2022-09-03T08:00:56;21.70;1.00
1602;DHT22;794;48.592;9.634;2022-09-03T08:03:23;21.60;1.00
1602;DHT22;794;48.592;9.634;2022-09-03T08:05:50;20.40;1.00
1602;DHT22;794;48.592;9.634;2022-09-03T08:10:49;20.40;1.00
1602;DHT22;794;48.592;9.634;2022-09-03T08:15:53;20.30;1.00
1602;DHT22;794;48.592;9.634;2022-09-03T08:28:10;20.50;1.00
1602;DHT22;794;48.592;9.634;2022-09-03T08:33:05;20.40;1.00
1602;DHT22;794;48.592;9.634;2022-09-03T08:40:32;20.70;1.00
1602;DHT22;794;48.592;9.634;2022-09-03T08:43:11;20.70;1.00
1602;DHT22;794;48.592;9.634;2022-09-03T08:45:42;21.50;1.00
1602;DHT22;794;48.592;9.634;2022-09-03T08:48:15;21.90;1.00
1602;DHT22;794;48.592;9.634;2022-09-03T08:50:45;22.40;1.00
1602;DHT22;794;48.592;9.634;2022-09-03T08:53:20;22.40;1.00
1602;DHT22;794;48.592;9.634;2022-09-03T08:55:52;20.00;1.00
1602;DHT22;794;48.592;9.634;2022-09-03T08:58:26;24.00;1.00
1602;DHT22;794;48.592;9.634;2022-09-03T09:00:56;24.00;1.00
1602;DHT22;794;48.592;9.634;2022-09-03T09:03:39;26.20;1.00
1602;DHT22;794;48.592;9.634;2022-09-03T09:06:18;28.10;1.00
1602;DHT22;794;48.592;9.634;2022-09-03T09:09:01;28.10;1.00
1602;DHT22;794;48.592;9.634;2022-09-03T09:11:40;29.60;1.00
1602;DHT22;794;48.592;9.634;2022-09-03T09:14:18;29.20;1.00
1602;DHT22;794;48.592;9.634;2022-09-03T09:16:49;29.10;1.00
1602;DHT22;794;48.592;9.634;2022-09-03T09:19:34;28.80;1.00
1602;DHT22;794;48.592;9.634;2022-09-03T09:22:06;28.90;1.00
1602;DHT22;794;48.592;9.634;2022-09-03T09:24:39;28.40;1.00
1602;DHT22;794;48.592;9.634;2022-09-03T09:27:07;29.40;1.00
1602;DHT22;794;48.592;9.634;2022-09-03T09:29:40;28.20;1.00
1602;DHT22;794;48.592;9.634;2022-09-03T09:32:09;27.50;1.00
1602;DHT22;794;48.592;9.634;2022-09-03T09:34:39;27.50;1.00
1602;DHT22;794;48.592;9.634;2022-09-03T09:37:10;27.90;1.00
1602;DHT22;794;48.592;9.634;2022-09-03T09:39:37;28.10;1.00
1602;DHT22;794;48.592;9.634;2022-09-03T09:42:06;29.00;1.00
1602;DHT22;794;48.592;9.634;2022-09-03T09:44:36;29.90;1.00
1602;DHT22;794;48.592;9.634;2022-09-03T09:47:05;30.90;1.00
1602;DHT22;794;48.592;9.634;2022-09-03T09:49:36;32.00;1.00
1602;DHT22;794;48.592;9.634;2022-09-03T09:52:09;32.90;1.00
1602;DHT22;794;48.592;9.634;2022-09-03T09:57:12;32.20;1.00
1602;DHT22;794;48.592;9.634;2022-09-03T09:59:44;30.90;1.00
1602;DHT22;794;48.592;9.634;2022-09-03T10:02:19;29.70;1.00
1602;DHT22;794;48.592;9.634;2022-09-03T10:07:23;28.50;1.00
1602;DHT22;794;48.592;9.634;2022-09-03T10:09:59;28.70;1.00
1602;DHT22;794;48.592;9.634;2022-09-03T10:12:39;28.40;1.00
1602;DHT22;794;48.592;9.634;2022-09-03T10:15:21;28.80;1.00
1602;DHT22;794;48.592;9.634;2022-09-03T10:18:13;29.10;1.00
1602;DHT22;794;48.592;9.634;2022-09-03T10:20:57;29.30;1.00
1602;DHT22;794;48.592;9.634;2022-09-03T10:23:46;29.50;1.00
1602;DHT22;794;48.592;9.634;2022-09-03T10:26:24;29.30;1.00
1602;DHT22;794;48.592;9.634;2022-09-03T10:29:02;28.50;1.00
1602;DHT22;794;48.592;9.634;2022-09-03T10:31:41;28.40;1.00
1602;DHT22;794;48.592;9.634;2022-09-03T10:34:17;28.10;1.00
1602;DHT22;794;48.592;9.634;2022-09-03T10:36:55;27.30;1.00
1602;DHT22;794;48.592;9.634;2022-09-03T10:39:34;26.50;1.00
1602;DHT22;794;48.592;9.634;2022-09-03T10:42:11;25.80;1.00
1602;DHT22;794;48.592;9.634;2022-09-03T10:45:00;25.30;1.00
1602;DHT22;794;48.592;9.634;2022-09-03T10:50:59;24.60;1.00
1602;DHT22;794;48.592;9.634;2022-09-03T10:53:52;24.40;1.00
1602;DHT22;794;48.592;9.634;2022-09-03T10:56:41;23.80;1.00
1602;DHT22;794;48.592;9.634;2022-09-03T10:59:28;24.30;1.00
1602;DHT22;794;48.592;9.634;2022-09-03T11:02:04;24.40;1.00
1602;DHT22;794;48.592;9.634;2022-09-03T11:04:46;25.10;1.00
1602;DHT22;794;48.592;9.634;2022-09-03T11:07:19;25.00;1.00
1602;DHT22;794;48.592;9.634;2022-09-03T11:10:04;25.10;1.00
1602;DHT22;794;48.592;9.634;2022-09-03T11:12:35;25.40;1.00
1602;DHT22;794;48.592;9.634;2022-09-03T11:15:12;25.50;1.00
1602;DHT22;794;48.592;9.634;2022-09-03T11:17:48;25.70;1.00
1602;DHT22;794;48.592;9.634;2022-09-03T11:20:20;25.50;1.00
1602;DHT22;794;48.592;9.634;2022-09-03T11:22:50;25.70;1.00
1602;DHT22;794;48.592;9.634;2022-09-03T11:25:21;25.90;1.00
1602;DHT22;794;48.592;9.634;2022-09-03T11:28:01;25.70;1.00
1602;DHT22;794;48.592;9.634;2022-09-03T11:30:39;25.50;1.00
1602;DHT22;794;48.592;9.634;2022-09-03T11:33:13;25.60;1.00
1602;DHT22;794;48.592;9.634;2022-09-03T11:35:42;25.70;1.00
1602;DHT22;794;48.592;9.634;2022-09-03T11:38:21;25.60;1.00
1602;DHT22;794;48.592;9.634;2022-09-03T11:41:00;25.40;1.00
1602;DHT22;794;48.592;9.634;2022-09-03T11:43:32;25.30;1.00
1602;DHT22;794;48.592;9.634;2022-09-03T11:46:06;25.10;1.00
1602;DHT22;794;48.592;9.634;2022-09-03T11:48:46;24.80;1.00
1602;DHT22;794;48.592;9.634;2022-09-03T11:51:30;24.90;1.00
1602;DHT22;794;48.592;9.634;2022-09-03T11:54:01;24.30;1.00
1602;DHT22;794;48.592;9.634;2022-09-03T11:56:33;24.00;1.00
1602;DHT22;794;48.592;9.634;2022-09-03T11:59:22;23.60;1.00
1602;DHT22;794;48.592;9.634;2022-09-03T12:01:55;23.30;1.00
1602;DHT22;794;48.592;9.634;2022-09-03T12:04:32;23.10;1.00
1602;DHT22;794;48.592;9.634;2022-09-03T12:07:34;23.00;1.00
1602;DHT22;794;48.592;9.634;2022-09-03T12:10:19;22.70;1.00
1602;DHT22;794;48.592;9.634;2022-09-03T12:13:04;22.30;1.00
1602;DHT22;794;48.592;9.634;2022-09-03T12:15:52;21.90;1.00
1602;DHT22;794;48.592;9.634;2022-09-03T12:18:24;21.20;1.00
1602;DHT22;794;48.592;9.634;2022-09-03T12:21:02;20.50;1.00
1602;DHT22;794;48.592;9.634;2022-09-03T12:23:40;19.90;1.00
1602;DHT22;794;48.592;9.634;2022-09-03T12:26:12;19.30;1.00
1602;DHT22;794;48.592;9.634;2022-09-03T12:28:42;18.80;1.00
1602;DHT22;794;48.592;9.634;2022-09-03T12:31:15;18.40;1.00
1602;DHT22;794;48.592;9.634;2022-09-03T12:33:54;17.90;1.00
1602;DHT22;794;48.592;9.634;2022-09-03T12:38:52;17.30;1.00
1602;DHT22;794;48.592;9.634;2022-09-03T12:41:29;17.00;1.00
1602;DHT22;794;48.592;9.634;2022-09-03T12:44:01;16.80;1.00
1602;DHT22;794;48.592;9.634;2022-09-03T12:46:31;16.70;1.00
1602;DHT22;794;48.592;9.634;2022-09-03T12:49:00;16.60;1.00
1602;DHT22;794;48.592;9.634;2022-09-03T12:51:39;16.60;1.00
1602;DHT22;794;48.592;9.634;2022-09-03T12:54:10;16.70;1.00
1602;DHT22;794;48.592;9.634;2022-09-03T12:56:41;16.70;1.00
1602;DHT22;794;48.592;9.634;2022-09-03T12:59:16;16.80;1.00
1602;DHT22;794;48.592;9.634;2022-09-03T13:01:47;16.80;1.00
1602;DHT22;794;48.592;9.634;2022-09-03T13:04:21;16.80;1.00
1602;DHT22;794;48.592;9.634;2022-09-03T13:07:05;16.70;1.00
1602;DHT22;794;48.592;9.634;2022-09-03T13:09:51;17.00;1.00
1602;DHT22;794;48.592;9.634;2022-09-03T13:12:28;17.10;1.00
1602;DHT22;794;48.592;9.634;2022-09-03T13:17:50;17.30;1.00
1602;DHT22;794;48.592;9.634;2022-09-03T13:20:28;17.90;1.00
1602;DHT22;794;48.592;9.634;2022-09-03T13:23:13;18.50;1.00
1602;DHT22;794;48.592;9.634;2022-09-03T13:25:52;19.10;1.00
1602;DHT22;794;48.592;9.634;2022-09-03T13:28:33;19.40;1.00
1602;DHT22;794;48.592;9.634;2022-09-03T13:31:09;19.70;1.00
1602;DHT22;794;48.592;9.634;2022-09-03T13:33:51;19.80;1.00
1602;DHT22;794;48.592;9.634;2022-09-03T13:36:25;19.80;1.00
1602;DHT22;794;48.592;9.634;2022-09-03T13:38:58;19.90;1.00
1602;DHT22;794;48.592;9.634;2022-09-03T13:41:36;19.90;1.00
1602;DHT22;794;48.592;9.634;2022-09-03T13:44:08;19.80;1.00
1602;DHT22;794;48.592;9.634;2022-09-03T13:46:44;19.60;1.00
1602;DHT22;794;48.592;9.634;2022-09-03T13:49:29;19.60;1.00
1602;DHT22;794;48.592;9.634;2022-09-03T13:52:20;19.40;1.00
1602;DHT22;794;48.592;9.634;2022-09-03T13:54:54;17.90;1.00
1602;DHT22;794;48.592;9.634;2022-09-03T13:57:32;19.40;1.00
1602;DHT22;794;48.592;9.634;2022-09-03T14:00:10;19.40;1.00
1602;DHT22;794;48.592;9.634;2022-09-03T14:02:49;19.30;1.00
1602;DHT22;794;48.592;9.634;2022-09-03T14:05:29;19.40;1.00
1602;DHT22;794;48.592;9.634;2022-09-03T14:08:07;19.40;1.00
1602;DHT22;794;48.592;9.634;2022-09-03T14:10:58;19.50;1.00
1602;DHT22;794;48.592;9.634;2022-09-03T14:13:45;19.50;1.00
1602;DHT22;794;48.592;9.634;2022-09-03T14:16:23;19.60;1.00
1602;DHT22;794;48.592;9.634;2022-09-03T14:18:55;19.70;1.00
1602;DHT22;794;48.592;9.634;2022-09-03T14:21:28;19.50;1.00
1602;DHT22;794;48.592;9.634;2022-09-03T14:24:03;19.80;1.00
1602;DHT22;794;48.592;9.634;2022-09-03T14:26:33;20.10;1.00
1602;DHT22;794;48.592;9.634;2022-09-03T14:29:12;20.10;1.00
1602;DHT22;794;48.592;9.634;2022-09-03T14:32:02;20.70;1.00
1602;DHT22;794;48.592;9.634;2022-09-03T14:34:40;20.60;1.00
1602;DHT22;794;48.592;9.634;2022-09-03T14:37:37;21.30;1.00
1602;DHT22;794;48.592;9.634;2022-09-03T14:40:14;21.00;1.00
1602;DHT22;794;48.592;9.634;2022-09-03T14:42:59;21.30;1.00
1602;DHT22;794;48.592;9.634;2022-09-03T14:45:56;21.20;1.00
1602;DHT22;794;48.592;9.634;2022-09-03T14:48:57;21.20;1.00
1602;DHT22;794;48.592;9.634;2022-09-03T14:51:46;21.30;1.00
1602;DHT22;794;48.592;9.634;2022-09-03T14:54:29;21.50;1.00
1602;DHT22;794;48.592;9.634;2022-09-03T14:57:24;21.50;1.00
1602;DHT22;794;48.592;9.634;2022-09-03T15:00:04;21.90;1.00
1602;DHT22;794;48.592;9.634;2022-09-03T15:06:05;21.40;1.00
1602;DHT22;794;48.592;9.634;2022-09-03T15:08:47;21.50;1.00
1602;DHT22;794;48.592;9.634;2022-09-03T15:11:18;21.30;1.00
1602;DHT22;794;48.592;9.634;2022-09-03T15:13:51;21.20;1.00
1602;DHT22;794;48.592;9.634;2022-09-03T15:16:37;21.30;1.00
1602;DHT22;794;48.592;9.634;2022-09-03T15:19:17;21.60;1.00
1602;DHT22;794;48.592;9.634;2022-09-03T15:22:02;21.40;1.00
1602;DHT22;794;48.592;9.634;2022-09-03T15:24:42;21.10;1.00
1602;DHT22;794;48.592;9.634;2022-09-03T15:27:30;21.20;1.00
1602;DHT22;794;48.592;9.634;2022-09-03T15:30:07;21.00;1.00
1602;DHT22;794;48.592;9.634;2022-09-03T15:32:47;21.00;1.00
1602;DHT22;794;48.592;9.634;2022-09-03T15:35:34;20.40;1.00
1602;DHT22;794;48.592;9.634;2022-09-03T15:38:19;20.20;1.00
1602;DHT22;794;48.592;9.634;2022-09-03T15:40:51;20.00;1.00
1602;DHT22;794;48.592;9.634;2022-09-03T15:43:24;20.10;1.00
1602;DHT22;794;48.592;9.634;2022-09-03T15:45:56;19.90;1.00
1602;DHT22;794;48.592;9.634;2022-09-03T15:48:33;19.60;1.00
1602;DHT22;794;48.592;9.634;2022-09-03T15:51:19;19.50;1.00
1602;DHT22;794;48.592;9.634;2022-09-03T15:53:53;19.50;1.00
1602;DHT22;794;48.592;9.634;2022-09-03T15:56:27;19.40;1.00
1602;DHT22;794;48.592;9.634;2022-09-03T15:59:00;19.40;1.00
1602;DHT22;794;48.592;9.634;2022-09-03T16:01:43;19.30;1.00
1602;DHT22;794;48.592;9.634;2022-09-03T16:04:24;19.30;1.00
1602;DHT22;794;48.592;9.634;2022-09-03T16:06:56;19.30;1.00
1602;DHT22;794;48.592;9.634;2022-09-03T16:09:45;19.30;1.00
1602;DHT22;794;48.592;9.634;2022-09-03T16:12:20;19.20;1.00
1602;DHT22;794;48.592;9.634;2022-09-03T16:14:57;19.20;1.00
1602;DHT22;794;48.592;9.634;2022-09-03T16:17:29;19.30;1.00
1602;DHT22;794;48.592;9.634;2022-09-03T16:20:02;19.20;1.00
1602;DHT22;794;48.592;9.634;2022-09-03T16:22:37;19.10;1.00
1602;DHT22;794;48.592;9.634;2022-09-03T16:25:12;19.30;1.00
1602;DHT22;794;48.592;9.634;2022-09-03T16:27:53;19.10;1.00
1602;DHT22;794;48.592;9.634;2022-09-03T16:30:31;19.10;1.00
1602;DHT22;794;48.592;9.634;2022-09-03T16:33:08;18.90;1.00
1602;DHT22;794;48.592;9.634;2022-09-03T16:35:42;18.80;1.00
1602;DHT22;794;48.592;9.634;2022-09-03T16:38:41;18.80;1.00
1602;DHT22;794;48.592;9.634;2022-09-03T16:41:20;18.70;1.00
1602;DHT22;794;48.592;9.634;2022-09-03T16:43:59;18.60;1.00
1602;DHT22;794;48.592;9.634;2022-09-03T16:46:35;19.00;1.00
1602;DHT22;794;48.592;9.634;2022-09-03T16:49:16;19.00;1.00
1602;DHT22;794;48.592;9.634;2022-09-03T16:52:01;19.50;1.00
1602;DHT22;794;48.592;9.634;2022-09-03T16:54:42;19.10;1.00
1602;DHT22;794;48.592;9.634;2022-09-03T16:57:23;19.00;1.00
1602;DHT22;794;48.592;9.634;2022-09-03T17:00:05;19.00;1.00
1602;DHT22;794;48.592;9.634;2022-09-03T17:09:05;18.30;1.00
1602;DHT22;794;48.592;9.634;2022-09-03T17:11:50;18.10;1.00
1602;DHT22;794;48.592;9.634;2022-09-03T17:17:33;17.90;1.00
1602;DHT22;794;48.592;9.634;2022-09-03T17:20:07;17.70;1.00
1602;DHT22;794;48.592;9.634;2022-09-03T17:22:49;17.60;1.00
1602;DHT22;794;48.592;9.634;2022-09-03T17:25:25;17.50;1.00
1602;DHT22;794;48.592;9.634;2022-09-03T17:28:07;17.40;1.00
1602;DHT22;794;48.592;9.634;2022-09-03T17:30:42;17.30;1.00
1602;DHT22;794;48.592;9.634;2022-09-03T17:36:10;17.20;1.00
1602;DHT22;794;48.592;9.634;2022-09-03T17:39:10;17.20;1.00
1602;DHT22;794;48.592;9.634;2022-09-03T17:41:45;17.10;1.00
1602;DHT22;794;48.592;9.634;2022-09-03T17:44:21;17.00;1.00
1602;DHT22;794;48.592;9.634;2022-09-03T17:47:03;16.80;1.00
1602;DHT22;794;48.592;9.634;2022-09-03T17:49:40;16.70;1.00
1602;DHT22;794;48.592;9.634;2022-09-03T17:52:20;16.70;1.00
1602;DHT22;794;48.592;9.634;2022-09-03T17:54:53;16.60;1.00
1602;DHT22;794;48.592;9.634;2022-09-03T17:57:25;16.50;1.00
1602;DHT22;794;48.592;9.634;2022-09-03T18:00:04;16.50;1.00
1602;DHT22;794;48.592;9.634;2022-09-03T18:02:36;14.80;1.00
1602;DHT22;794;48.592;9.634;2022-09-03T18:05:18;16.40;1.00
1602;DHT22;794;48.592;9.634;2022-09-03T18:07:49;13.60;1.00
1602;DHT22;794;48.592;9.634;2022-09-03T18:10:26;16.10;1.00
1602;DHT22;794;48.592;9.634;2022-09-03T18:12:58;13.00;1.00
1602;DHT22;794;48.592;9.634;2022-09-03T18:15:34;16.00;1.00
1602;DHT22;794;48.592;9.634;2022-09-03T18:18:08;16.00;1.00
1602;DHT22;794;48.592;9.634;2022-09-03T18:20:41;15.90;1.00
1602;DHT22;794;48.592;9.634;2022-09-03T18:23:45;15.80;1.00
1602;DHT22;794;48.592;9.634;2022-09-03T18:26:34;15.80;1.00
1602;DHT22;794;48.592;9.634;2022-09-03T18:29:36;15.80;1.00
1602;DHT22;794;48.592;9.634;2022-09-03T18:32:22;15.70;1.00
1602;DHT22;794;48.592;9.634;2022-09-03T18:35:08;15.70;1.00
1602;DHT22;794;48.592;9.634;2022-09-03T18:40:44;15.70;1.00
1602;DHT22;794;48.592;9.634;2022-09-03T18:43:38;15.60;1.00